sensor_id;sensor_type;location;lat;lon;timestamp;temperature;humidity
33943;DHT22;66763;47.856;17.462;2024-01-30T00:00:36;13.00;46.80
33943;DHT22;66763;47.856;17.462;2024-01-30T00:03:01;13.00;46.80
33943;DHT22;66763;47.856;17.462;2024-01-30T00:05:27;12.90;46.80
33943;DHT22;66763;47.856;17.462;2024-01-30T00:07:52;12.90;47.00
33943;DHT22;66763;47.856;17.462;2024-01-30T00:10:18;12.90;47.00
33943;DHT22;66763;47.856;17.462;2024-01-30T00:12:43;12.90;47.70
33943;DHT22;66763;47.856;17.462;2024-01-30T00:15:08;12.90;47.10
33943;DHT22;66763;47.856;17.462;2024-01-30T00:17:35;12.80;47.10
33943;DHT22;66763;47.856;17.462;2024-01-30T00:20:01;12.80;47.10
33943;DHT22;66763;47.856;17.462;2024-01-30T00:22:30;12.70;47.20
33943;DHT22;66763;47.856;17.462;2024-01-30T00:24:56;12.70;47.20
33943;DHT22;66763;47.856;17.462;2024-01-30T00:27:21;12.70;47.20
33943;DHT22;66763;47.856;17.462;2024-01-30T00:29:47;12.70;47.30
33943;DHT22;66763;47.856;17.462;2024-01-30T00:32:12;12.70;47.40
33943;DHT22;66763;47.856;17.462;2024-01-30T00:34:38;12.70;47.40
33943;DHT22;66763;47.856;17.462;2024-01-30T00:37:03;12.60;47.40
33943;DHT22;66763;47.856;17.462;2024-01-30T00:39:29;12.60;48.00
33943;DHT22;66763;47.856;17.462;2024-01-30T00:41:54;12.60;47.40
33943;DHT22;66763;47.856;17.462;2024-01-30T00:44:20;12.60;47.50
33943;DHT22;66763;47.856;17.462;2024-01-30T00:46:45;12.60;47.50
33943;DHT22;66763;47.856;17.462;2024-01-30T00:49:11;12.50;47.50
33943;DHT22;66763;47.856;17.462;2024-01-30T00:51:36;12.50;47.50
33943;DHT22;66763;47.856;17.462;2024-01-30T00:54:02;12.50;47.50
33943;DHT22;66763;47.856;17.462;2024-01-30T00:56:28;12.50;47.50
33943;DHT22;66763;47.856;17.462;2024-01-30T00:58:54;12.40;47.50
33943;DHT22;66763;47.856;17.462;2024-01-30T01:01:19;12.40;47.60
33943;DHT22;66763;47.856;17.462;2024-01-30T01:03:45;12.40;47.60
33943;DHT22;66763;47.856;17.462;2024-01-30T01:06:10;12.40;47.60
33943;DHT22;66763;47.856;17.462;2024-01-30T01:08:36;12.40;47.60
33943;DHT22;66763;47.856;17.462;2024-01-30T01:11:01;12.30;47.60
33943;DHT22;66763;47.856;17.462;2024-01-30T01:13:28;12.40;47.70
33943;DHT22;66763;47.856;17.462;2024-01-30T01:15:54;12.30;47.70
33943;DHT22;66763;47.856;17.462;2024-01-30T01:18:20;12.30;47.70
33943;DHT22;66763;47.856;17.462;2024-01-30T01:20:45;12.30;47.70
33943;DHT22;66763;47.856;17.462;2024-01-30T01:23:11;12.30;47.80
33943;DHT22;66763;47.856;17.462;2024-01-30T01:25:36;12.30;47.80
33943;DHT22;66763;47.856;17.462;2024-01-30T01:28:02;12.20;47.70
33943;DHT22;66763;47.856;17.462;2024-01-30T01:30:28;12.30;47.80
33943;DHT22;66763;47.856;17.462;2024-01-30T01:32:54;12.20;47.70
33943;DHT22;66763;47.856;17.462;2024-01-30T01:35:26;12.20;47.80
33943;DHT22;66763;47.856;17.462;2024-01-30T01:37:52;12.20;48.30
33943;DHT22;66763;47.856;17.462;2024-01-30T01:40:23;12.20;47.80
33943;DHT22;66763;47.856;17.462;2024-01-30T01:42:49;12.20;47.80
33943;DHT22;66763;47.856;17.462;2024-01-30T01:45:15;12.20;47.80
33943;DHT22;66763;47.856;17.462;2024-01-30T01:47:41;12.20;47.80
33943;DHT22;66763;47.856;17.462;2024-01-30T01:50:06;12.20;47.90
33943;DHT22;66763;47.856;17.462;2024-01-30T01:52:32;12.20;47.80
33943;DHT22;66763;47.856;17.462;2024-01-30T01:54:58;12.10;47.80
33943;DHT22;66763;47.856;17.462;2024-01-30T01:57:24;12.10;47.80
33943;DHT22;66763;47.856;17.462;2024-01-30T01:59:50;12.10;47.80
33943;DHT22;66763;47.856;17.462;2024-01-30T02:02:15;12.10;47.80
33943;DHT22;66763;47.856;17.462;2024-01-30T02:04:42;12.10;47.80
33943;DHT22;66763;47.856;17.462;2024-01-30T02:07:08;12.10;47.80
33943;DHT22;66763;47.856;17.462;2024-01-30T02:09:33;12.10;47.80
33943;DHT22;66763;47.856;17.462;2024-01-30T02:11:59;12.00;47.80
33943;DHT22;66763;47.856;17.462;2024-01-30T02:14:25;12.00;47.80
33943;DHT22;66763;47.856;17.462;2024-01-30T02:16:51;12.00;47.80
33943;DHT22;66763;47.856;17.462;2024-01-30T02:19:16;12.00;47.80
33943;DHT22;66763;47.856;17.462;2024-01-30T02:21:41;12.00;47.80
33943;DHT22;66763;47.856;17.462;2024-01-30T02:24:07;12.00;47.80
33943;DHT22;66763;47.856;17.462;2024-01-30T02:26:32;12.00;47.80
33943;DHT22;66763;47.856;17.462;2024-01-30T02:28:58;12.00;47.80
33943;DHT22;66763;47.856;17.462;2024-01-30T02:31:24;12.00;47.80
33943;DHT22;66763;47.856;17.462;2024-01-30T02:33:50;12.00;47.80
33943;DHT22;66763;47.856;17.462;2024-01-30T02:36:15;12.00;47.80
33943;DHT22;66763;47.856;17.462;2024-01-30T02:38:41;11.90;47.80
33943;DHT22;66763;47.856;17.462;2024-01-30T02:41:06;12.00;47.80
33943;DHT22;66763;47.856;17.462;2024-01-30T02:43:32;12.00;47.80
33943;DHT22;66763;47.856;17.462;2024-01-30T02:45:57;11.90;47.80
33943;DHT22;66763;47.856;17.462;2024-01-30T02:48:25;11.90;47.80
33943;DHT22;66763;47.856;17.462;2024-01-30T02:50:50;11.90;47.70
33943;DHT22;66763;47.856;17.462;2024-01-30T02:53:15;11.90;47.80
33943;DHT22;66763;47.856;17.462;2024-01-30T02:55:41;11.90;47.80
33943;DHT22;66763;47.856;17.462;2024-01-30T02:58:06;11.90;47.80
33943;DHT22;66763;47.856;17.462;2024-01-30T03:00:32;11.90;47.80
33943;DHT22;66763;47.856;17.462;2024-01-30T03:02:57;11.90;47.80
33943;DHT22;66763;47.856;17.462;2024-01-30T03:05:23;11.80;47.70
33943;DHT22;66763;47.856;17.462;2024-01-30T03:07:48;11.90;47.80
33943;DHT22;66763;47.856;17.462;2024-01-30T03:10:14;11.80;47.70
33943;DHT22;66763;47.856;17.462;2024-01-30T03:12:39;11.80;47.80
33943;DHT22;66763;47.856;17.462;2024-01-30T03:15:05;11.90;47.90
33943;DHT22;66763;47.856;17.462;2024-01-30T03:17:30;11.80;47.80
33943;DHT22;66763;47.856;17.462;2024-01-30T03:19:56;11.80;47.80
33943;DHT22;66763;47.856;17.462;2024-01-30T03:22:22;11.80;47.80
33943;DHT22;66763;47.856;17.462;2024-01-30T03:24:47;11.80;47.80
33943;DHT22;66763;47.856;17.462;2024-01-30T03:27:13;11.80;47.80
33943;DHT22;66763;47.856;17.462;2024-01-30T03:29:39;11.80;47.80
33943;DHT22;66763;47.856;17.462;2024-01-30T03:32:04;11.80;47.80
33943;DHT22;66763;47.856;17.462;2024-01-30T03:34:30;11.80;47.80
33943;DHT22;66763;47.856;17.462;2024-01-30T03:36:55;11.80;47.80
33943;DHT22;66763;47.856;17.462;2024-01-30T03:39:21;11.80;47.90
33943;DHT22;66763;47.856;17.462;2024-01-30T03:41:46;11.80;47.90
33943;DHT22;66763;47.856;17.462;2024-01-30T03:44:12;11.80;47.90
33943;DHT22;66763;47.856;17.462;2024-01-30T03:46:37;11.80;47.80
33943;DHT22;66763;47.856;17.462;2024-01-30T03:49:03;11.70;47.80
33943;DHT22;66763;47.856;17.462;2024-01-30T03:51:28;11.70;47.80
33943;DHT22;66763;47.856;17.462;2024-01-30T03:53:54;11.70;47.80
33943;DHT22;66763;47.856;17.462;2024-01-30T03:56:19;11.80;47.90
33943;DHT22;66763;47.856;17.462;2024-01-30T03:58:45;11.70;47.80
33943;DHT22;66763;47.856;17.462;2024-01-30T04:01:14;11.70;47.90
33943;DHT22;66763;47.856;17.462;2024-01-30T04:03:40;11.70;47.80
33943;DHT22;66763;47.856;17.462;2024-01-30T04:06:05;11.70;47.90
33943;DHT22;66763;47.856;17.462;2024-01-30T04:08:31;11.70;47.90
33943;DHT22;66763;47.856;17.462;2024-01-30T04:10:56;11.70;47.80
33943;DHT22;66763;47.856;17.462;2024-01-30T04:13:22;11.70;47.90
33943;DHT22;66763;47.856;17.462;2024-01-30T04:15:47;11.70;47.90
33943;DHT22;66763;47.856;17.462;2024-01-30T04:18:13;11.70;47.90
33943;DHT22;66763;47.856;17.462;2024-01-30T04:20:38;11.70;47.90
33943;DHT22;66763;47.856;17.462;2024-01-30T04:23:04;11.70;47.90
33943;DHT22;66763;47.856;17.462;2024-01-30T04:25:29;11.60;47.90
33943;DHT22;66763;47.856;17.462;2024-01-30T04:27:54;11.70;48.00
33943;DHT22;66763;47.856;17.462;2024-01-30T04:30:20;11.60;47.90
33943;DHT22;66763;47.856;17.462;2024-01-30T04:32:45;11.60;47.90
33943;DHT22;66763;47.856;17.462;2024-01-30T04:35:11;11.70;47.90
33943;DHT22;66763;47.856;17.462;2024-01-30T04:37:36;11.70;47.90
33943;DHT22;66763;47.856;17.462;2024-01-30T04:40:02;11.80;47.80
33943;DHT22;66763;47.856;17.462;2024-01-30T04:42:28;11.90;47.70
33943;DHT22;66763;47.856;17.462;2024-01-30T04:44:53;12.00;47.60
33943;DHT22;66763;47.856;17.462;2024-01-30T04:47:19;12.20;47.50
33943;DHT22;66763;47.856;17.462;2024-01-30T04:49:44;12.30;47.50
33943;DHT22;66763;47.856;17.462;2024-01-30T04:52:10;12.30;47.30
33943;DHT22;66763;47.856;17.462;2024-01-30T04:54:35;12.40;47.20
33943;DHT22;66763;47.856;17.462;2024-01-30T04:57:01;12.50;47.10
33943;DHT22;66763;47.856;17.462;2024-01-30T04:59:27;12.50;47.10
33943;DHT22;66763;47.856;17.462;2024-01-30T05:01:53;12.60;47.10
33943;DHT22;66763;47.856;17.462;2024-01-30T05:04:18;12.60;46.80
33943;DHT22;66763;47.856;17.462;2024-01-30T05:06:44;12.70;46.90
33943;DHT22;66763;47.856;17.462;2024-01-30T05:09:09;12.70;46.80
33943;DHT22;66763;47.856;17.462;2024-01-30T05:11:38;12.70;46.70
33943;DHT22;66763;47.856;17.462;2024-01-30T05:14:04;12.80;46.70
33943;DHT22;66763;47.856;17.462;2024-01-30T05:16:30;12.80;46.60
33943;DHT22;66763;47.856;17.462;2024-01-30T05:18:55;12.80;46.60
33943;DHT22;66763;47.856;17.462;2024-01-30T05:21:20;12.90;46.60
33943;DHT22;66763;47.856;17.462;2024-01-30T05:23:46;12.90;46.60
33943;DHT22;66763;47.856;17.462;2024-01-30T05:26:11;12.90;46.50
33943;DHT22;66763;47.856;17.462;2024-01-30T05:28:37;13.00;46.40
33943;DHT22;66763;47.856;17.462;2024-01-30T05:31:03;13.00;46.40
33943;DHT22;66763;47.856;17.462;2024-01-30T05:33:28;13.10;46.40
33943;DHT22;66763;47.856;17.462;2024-01-30T05:35:55;13.00;46.40
33943;DHT22;66763;47.856;17.462;2024-01-30T05:38:20;13.10;46.40
33943;DHT22;66763;47.856;17.462;2024-01-30T05:40:46;13.00;46.30
33943;DHT22;66763;47.856;17.462;2024-01-30T05:43:11;13.00;46.40
33943;DHT22;66763;47.856;17.462;2024-01-30T05:45:37;13.00;46.40
33943;DHT22;66763;47.856;17.462;2024-01-30T05:48:02;13.00;46.50
33943;DHT22;66763;47.856;17.462;2024-01-30T05:50:28;13.00;46.40
33943;DHT22;66763;47.856;17.462;2024-01-30T05:52:53;12.90;46.40
33943;DHT22;66763;47.856;17.462;2024-01-30T05:55:19;12.90;46.50
33943;DHT22;66763;47.856;17.462;2024-01-30T05:57:44;12.90;46.50
33943;DHT22;66763;47.856;17.462;2024-01-30T06:00:10;12.90;46.60
33943;DHT22;66763;47.856;17.462;2024-01-30T06:02:35;12.80;46.50
33943;DHT22;66763;47.856;17.462;2024-01-30T06:05:01;12.80;46.60
33943;DHT22;66763;47.856;17.462;2024-01-30T06:07:26;12.80;46.70
33943;DHT22;66763;47.856;17.462;2024-01-30T06:09:52;12.80;46.70
33943;DHT22;66763;47.856;17.462;2024-01-30T06:12:17;12.70;46.70
33943;DHT22;66763;47.856;17.462;2024-01-30T06:14:42;12.70;46.70
33943;DHT22;66763;47.856;17.462;2024-01-30T06:17:08;12.70;46.80
33943;DHT22;66763;47.856;17.462;2024-01-30T06:19:34;12.70;46.90
33943;DHT22;66763;47.856;17.462;2024-01-30T06:21:59;12.60;46.90
33943;DHT22;66763;47.856;17.462;2024-01-30T06:24:25;12.60;47.00
33943;DHT22;66763;47.856;17.462;2024-01-30T06:26:50;12.60;47.00
33943;DHT22;66763;47.856;17.462;2024-01-30T06:29:16;12.50;47.00
33943;DHT22;66763;47.856;17.462;2024-01-30T06:31:42;12.50;47.00
33943;DHT22;66763;47.856;17.462;2024-01-30T06:34:07;12.50;47.10
33943;DHT22;66763;47.856;17.462;2024-01-30T06:36:33;12.50;47.20
33943;DHT22;66763;47.856;17.462;2024-01-30T06:38:59;12.40;47.20
33943;DHT22;66763;47.856;17.462;2024-01-30T06:41:25;12.40;47.20
33943;DHT22;66763;47.856;17.462;2024-01-30T06:43:50;12.40;47.30
33943;DHT22;66763;47.856;17.462;2024-01-30T06:46:15;12.40;47.30
33943;DHT22;66763;47.856;17.462;2024-01-30T06:48:41;12.30;47.20
33943;DHT22;66763;47.856;17.462;2024-01-30T06:51:10;12.30;47.30
33943;DHT22;66763;47.856;17.462;2024-01-30T06:53:35;12.30;47.30
33943;DHT22;66763;47.856;17.462;2024-01-30T06:56:01;12.30;47.30
33943;DHT22;66763;47.856;17.462;2024-01-30T06:58:26;12.30;47.30
33943;DHT22;66763;47.856;17.462;2024-01-30T07:00:52;12.30;47.40
33943;DHT22;66763;47.856;17.462;2024-01-30T07:03:17;12.30;47.40
33943;DHT22;66763;47.856;17.462;2024-01-30T07:05:43;12.30;47.40
33943;DHT22;66763;47.856;17.462;2024-01-30T07:08:08;12.20;47.40
33943;DHT22;66763;47.856;17.462;2024-01-30T07:10:34;12.30;47.40
33943;DHT22;66763;47.856;17.462;2024-01-30T07:13:00;12.20;47.40
33943;DHT22;66763;47.856;17.462;2024-01-30T07:15:25;12.20;47.40
33943;DHT22;66763;47.856;17.462;2024-01-30T07:17:51;12.20;47.40
33943;DHT22;66763;47.856;17.462;2024-01-30T07:20:16;12.20;47.40
33943;DHT22;66763;47.856;17.462;2024-01-30T07:22:45;12.20;47.50
33943;DHT22;66763;47.856;17.462;2024-01-30T07:25:10;12.20;47.50
33943;DHT22;66763;47.856;17.462;2024-01-30T07:27:36;12.20;47.50
33943;DHT22;66763;47.856;17.462;2024-01-30T07:30:01;12.20;47.50
33943;DHT22;66763;47.856;17.462;2024-01-30T07:32:27;12.10;47.50
33943;DHT22;66763;47.856;17.462;2024-01-30T07:34:53;12.10;47.50
33943;DHT22;66763;47.856;17.462;2024-01-30T07:37:18;12.10;47.50
33943;DHT22;66763;47.856;17.462;2024-01-30T07:39:44;12.10;47.50
33943;DHT22;66763;47.856;17.462;2024-01-30T07:42:10;12.10;47.50
33943;DHT22;66763;47.856;17.462;2024-01-30T07:44:35;12.10;47.50
33943;DHT22;66763;47.856;17.462;2024-01-30T07:47:01;12.10;47.60
33943;DHT22;66763;47.856;17.462;2024-01-30T07:49:28;12.00;47.50
33943;DHT22;66763;47.856;17.462;2024-01-30T07:51:53;12.00;47.50
33943;DHT22;66763;47.856;17.462;2024-01-30T07:54:19;12.00;47.60
33943;DHT22;66763;47.856;17.462;2024-01-30T07:56:44;12.00;47.60
33943;DHT22;66763;47.856;17.462;2024-01-30T07:59:10;12.00;47.60
33943;DHT22;66763;47.856;17.462;2024-01-30T08:01:36;12.00;47.60
33943;DHT22;66763;47.856;17.462;2024-01-30T08:04:02;12.00;47.60
33943;DHT22;66763;47.856;17.462;2024-01-30T08:06:27;12.00;47.60
33943;DHT22;66763;47.856;17.462;2024-01-30T08:08:52;11.90;47.60
33943;DHT22;66763;47.856;17.462;2024-01-30T08:11:21;12.00;47.60
33943;DHT22;66763;47.856;17.462;2024-01-30T08:13:54;12.00;47.60
33943;DHT22;66763;47.856;17.462;2024-01-30T08:16:20;11.90;47.60
33943;DHT22;66763;47.856;17.462;2024-01-30T08:18:45;11.90;47.60
33943;DHT22;66763;47.856;17.462;2024-01-30T08:21:11;11.90;47.90
33943;DHT22;66763;47.856;17.462;2024-01-30T08:23:38;11.90;47.60
33943;DHT22;66763;47.856;17.462;2024-01-30T08:26:03;11.90;47.60
33943;DHT22;66763;47.856;17.462;2024-01-30T08:28:29;11.90;47.60
33943;DHT22;66763;47.856;17.462;2024-01-30T08:30:55;11.90;47.70
33943;DHT22;66763;47.856;17.462;2024-01-30T08:33:20;11.90;47.60
33943;DHT22;66763;47.856;17.462;2024-01-30T08:35:45;11.90;47.60
33943;DHT22;66763;47.856;17.462;2024-01-30T08:38:11;11.90;47.60
33943;DHT22;66763;47.856;17.462;2024-01-30T08:40:37;11.90;47.60
33943;DHT22;66763;47.856;17.462;2024-01-30T08:43:03;11.90;47.60
33943;DHT22;66763;47.856;17.462;2024-01-30T08:45:29;11.90;47.60
33943;DHT22;66763;47.856;17.462;2024-01-30T08:47:55;11.80;47.60
33943;DHT22;66763;47.856;17.462;2024-01-30T08:50:21;11.80;47.60
33943;DHT22;66763;47.856;17.462;2024-01-30T08:52:46;11.90;47.60
33943;DHT22;66763;47.856;17.462;2024-01-30T08:55:12;11.80;47.60
33943;DHT22;66763;47.856;17.462;2024-01-30T08:57:37;11.80;47.60
33943;DHT22;66763;47.856;17.462;2024-01-30T09:00:03;11.80;47.60
33943;DHT22;66763;47.856;17.462;2024-01-30T09:02:32;11.90;47.70
33943;DHT22;66763;47.856;17.462;2024-01-30T09:04:57;11.90;47.70
33943;DHT22;66763;47.856;17.462;2024-01-30T09:07:23;11.80;47.70
33943;DHT22;66763;47.856;17.462;2024-01-30T09:09:48;11.80;47.70
33943;DHT22;66763;47.856;17.462;2024-01-30T09:12:14;11.80;47.70
33943;DHT22;66763;47.856;17.462;2024-01-30T09:14:39;11.80;47.70
33943;DHT22;66763;47.856;17.462;2024-01-30T09:17:06;11.80;47.70
33943;DHT22;66763;47.856;17.462;2024-01-30T09:19:31;11.80;47.70
33943;DHT22;66763;47.856;17.462;2024-01-30T09:21:57;11.80;47.70
33943;DHT22;66763;47.856;17.462;2024-01-30T09:24:22;11.80;47.80
33943;DHT22;66763;47.856;17.462;2024-01-30T09:26:48;11.80;47.80
33943;DHT22;66763;47.856;17.462;2024-01-30T09:29:13;11.80;47.80
33943;DHT22;66763;47.856;17.462;2024-01-30T09:31:39;11.80;47.80
33943;DHT22;66763;47.856;17.462;2024-01-30T09:34:04;11.80;47.90
33943;DHT22;66763;47.856;17.462;2024-01-30T09:36:31;11.80;47.80
33943;DHT22;66763;47.856;17.462;2024-01-30T09:38:57;11.70;47.80
33943;DHT22;66763;47.856;17.462;2024-01-30T09:41:23;11.70;47.80
33943;DHT22;66763;47.856;17.462;2024-01-30T09:43:49;11.80;47.90
33943;DHT22;66763;47.856;17.462;2024-01-30T09:46:16;11.80;47.80
33943;DHT22;66763;47.856;17.462;2024-01-30T09:48:43;11.70;47.80
33943;DHT22;66763;47.856;17.462;2024-01-30T09:51:09;11.70;47.90
33943;DHT22;66763;47.856;17.462;2024-01-30T09:53:35;11.70;47.80
33943;DHT22;66763;47.856;17.462;2024-01-30T09:56:01;11.70;47.90
33943;DHT22;66763;47.856;17.462;2024-01-30T09:58:27;11.70;47.90
33943;DHT22;66763;47.856;17.462;2024-01-30T10:00:53;11.70;48.00
33943;DHT22;66763;47.856;17.462;2024-01-30T10:03:19;11.70;47.90
33943;DHT22;66763;47.856;17.462;2024-01-30T10:05:46;11.70;47.90
33943;DHT22;66763;47.856;17.462;2024-01-30T10:08:16;11.70;47.90
33943;DHT22;66763;47.856;17.462;2024-01-30T10:10:45;11.70;48.00
33943;DHT22;66763;47.856;17.462;2024-01-30T10:13:10;11.70;48.00
33943;DHT22;66763;47.856;17.462;2024-01-30T10:15:36;11.70;48.00
33943;DHT22;66763;47.856;17.462;2024-01-30T10:18:07;11.70;47.90
33943;DHT22;66763;47.856;17.462;2024-01-30T10:20:33;11.70;48.00
33943;DHT22;66763;47.856;17.462;2024-01-30T10:22:59;11.70;48.00
33943;DHT22;66763;47.856;17.462;2024-01-30T10:25:25;11.60;47.90
33943;DHT22;66763;47.856;17.462;2024-01-30T10:27:54;11.70;48.00
33943;DHT22;66763;47.856;17.462;2024-01-30T10:30:22;11.70;47.90
33943;DHT22;66763;47.856;17.462;2024-01-30T10:32:48;11.70;48.00
33943;DHT22;66763;47.856;17.462;2024-01-30T10:35:13;11.80;47.90
33943;DHT22;66763;47.856;17.462;2024-01-30T10:37:39;11.80;47.80
33943;DHT22;66763;47.856;17.462;2024-01-30T10:40:05;12.00;47.80
33943;DHT22;66763;47.856;17.462;2024-01-30T10:42:31;12.10;47.80
33943;DHT22;66763;47.856;17.462;2024-01-30T10:45:00;12.20;47.70
33943;DHT22;66763;47.856;17.462;2024-01-30T10:47:29;12.30;47.60
33943;DHT22;66763;47.856;17.462;2024-01-30T10:49:54;12.40;47.40
33943;DHT22;66763;47.856;17.462;2024-01-30T10:52:20;12.40;47.40
33943;DHT22;66763;47.856;17.462;2024-01-30T10:54:46;12.50;47.20
33943;DHT22;66763;47.856;17.462;2024-01-30T10:57:11;12.60;47.30
33943;DHT22;66763;47.856;17.462;2024-01-30T10:59:38;12.70;47.20
33943;DHT22;66763;47.856;17.462;2024-01-30T11:02:03;12.70;47.10
33943;DHT22;66763;47.856;17.462;2024-01-30T11:04:40;12.70;47.00
33943;DHT22;66763;47.856;17.462;2024-01-30T11:07:16;12.80;47.00
33943;DHT22;66763;47.856;17.462;2024-01-30T11:09:51;12.80;46.90
33943;DHT22;66763;47.856;17.462;2024-01-30T11:12:16;12.80;46.90
33943;DHT22;66763;47.856;17.462;2024-01-30T11:14:42;12.90;46.80
33943;DHT22;66763;47.856;17.462;2024-01-30T11:17:09;12.90;46.80
33943;DHT22;66763;47.856;17.462;2024-01-30T11:19:35;13.00;46.90
33943;DHT22;66763;47.856;17.462;2024-01-30T11:22:00;13.00;46.70
33943;DHT22;66763;47.856;17.462;2024-01-30T11:24:27;13.10;46.80
33943;DHT22;66763;47.856;17.462;2024-01-30T11:26:56;13.00;46.70
33943;DHT22;66763;47.856;17.462;2024-01-30T11:29:27;13.10;46.70
33943;DHT22;66763;47.856;17.462;2024-01-30T11:31:53;13.10;46.70
33943;DHT22;66763;47.856;17.462;2024-01-30T11:34:19;13.10;46.70
33943;DHT22;66763;47.856;17.462;2024-01-30T11:36:45;13.10;46.70
33943;DHT22;66763;47.856;17.462;2024-01-30T11:39:15;13.00;46.70
33943;DHT22;66763;47.856;17.462;2024-01-30T11:41:42;13.00;46.70
33943;DHT22;66763;47.856;17.462;2024-01-30T11:44:08;13.00;46.80
33943;DHT22;66763;47.856;17.462;2024-01-30T11:46:34;13.00;46.80
33943;DHT22;66763;47.856;17.462;2024-01-30T11:49:00;13.00;46.90
33943;DHT22;66763;47.856;17.462;2024-01-30T11:51:25;13.00;46.90
33943;DHT22;66763;47.856;17.462;2024-01-30T11:53:51;13.00;47.00
33943;DHT22;66763;47.856;17.462;2024-01-30T11:56:17;12.90;47.00
33943;DHT22;66763;47.856;17.462;2024-01-30T11:58:42;12.90;47.10
33943;DHT22;66763;47.856;17.462;2024-01-30T12:01:09;12.90;47.10
33943;DHT22;66763;47.856;17.462;2024-01-30T12:03:35;12.80;47.20
33943;DHT22;66763;47.856;17.462;2024-01-30T12:06:02;12.80;47.20
33943;DHT22;66763;47.856;17.462;2024-01-30T12:08:28;12.80;47.30
33943;DHT22;66763;47.856;17.462;2024-01-30T12:10:59;12.80;47.30
33943;DHT22;66763;47.856;17.462;2024-01-30T12:13:27;12.80;47.40
33943;DHT22;66763;47.856;17.462;2024-01-30T12:15:53;12.70;47.50
33943;DHT22;66763;47.856;17.462;2024-01-30T12:18:19;12.70;47.40
33943;DHT22;66763;47.856;17.462;2024-01-30T12:20:45;12.70;47.50
33943;DHT22;66763;47.856;17.462;2024-01-30T12:23:11;12.70;47.50
33943;DHT22;66763;47.856;17.462;2024-01-30T12:25:37;12.70;47.50
33943;DHT22;66763;47.856;17.462;2024-01-30T12:28:03;12.70;47.50
33943;DHT22;66763;47.856;17.462;2024-01-30T12:30:29;12.70;48.20
33943;DHT22;66763;47.856;17.462;2024-01-30T12:32:55;12.60;47.50
33943;DHT22;66763;47.856;17.462;2024-01-30T12:35:20;12.60;47.50
33943;DHT22;66763;47.856;17.462;2024-01-30T12:37:47;12.60;47.60
33943;DHT22;66763;47.856;17.462;2024-01-30T12:40:16;12.60;47.60
33943;DHT22;66763;47.856;17.462;2024-01-30T12:42:42;12.60;47.60
33943;DHT22;66763;47.856;17.462;2024-01-30T12:45:08;12.60;47.60
33943;DHT22;66763;47.856;17.462;2024-01-30T12:47:33;12.50;47.60
33943;DHT22;66763;47.856;17.462;2024-01-30T12:49:59;12.50;47.60
33943;DHT22;66763;47.856;17.462;2024-01-30T12:52:25;12.50;47.70
33943;DHT22;66763;47.856;17.462;2024-01-30T12:54:51;12.50;47.60
33943;DHT22;66763;47.856;17.462;2024-01-30T12:57:16;12.50;47.60
33943;DHT22;66763;47.856;17.462;2024-01-30T12:59:42;12.50;47.60
33943;DHT22;66763;47.856;17.462;2024-01-30T13:02:08;12.50;47.60
33943;DHT22;66763;47.856;17.462;2024-01-30T13:04:34;12.50;47.60
33943;DHT22;66763;47.856;17.462;2024-01-30T13:06:59;12.40;47.70
33943;DHT22;66763;47.856;17.462;2024-01-30T13:09:26;12.40;47.60
33943;DHT22;66763;47.856;17.462;2024-01-30T13:11:51;12.40;47.60
33943;DHT22;66763;47.856;17.462;2024-01-30T13:14:17;12.40;47.70
33943;DHT22;66763;47.856;17.462;2024-01-30T13:16:42;12.40;47.60
33943;DHT22;66763;47.856;17.462;2024-01-30T13:19:08;12.40;47.70
33943;DHT22;66763;47.856;17.462;2024-01-30T13:21:33;12.40;47.70
33943;DHT22;66763;47.856;17.462;2024-01-30T13:23:59;12.40;47.70
33943;DHT22;66763;47.856;17.462;2024-01-30T13:26:25;12.30;47.70
33943;DHT22;66763;47.856;17.462;2024-01-30T13:28:50;12.40;47.70
33943;DHT22;66763;47.856;17.462;2024-01-30T13:31:16;12.30;47.70
33943;DHT22;66763;47.856;17.462;2024-01-30T13:33:41;12.30;47.80
33943;DHT22;66763;47.856;17.462;2024-01-30T13:36:10;12.30;47.70
33943;DHT22;66763;47.856;17.462;2024-01-30T13:38:35;12.30;47.80
33943;DHT22;66763;47.856;17.462;2024-01-30T13:41:01;12.30;47.80
33943;DHT22;66763;47.856;17.462;2024-01-30T13:43:26;12.30;47.80
33943;DHT22;66763;47.856;17.462;2024-01-30T13:45:52;12.30;47.80
33943;DHT22;66763;47.856;17.462;2024-01-30T13:48:17;12.30;47.80
33943;DHT22;66763;47.856;17.462;2024-01-30T13:50:43;12.30;47.80
33943;DHT22;66763;47.856;17.462;2024-01-30T13:53:08;12.20;47.80
33943;DHT22;66763;47.856;17.462;2024-01-30T13:55:34;12.30;47.90
33943;DHT22;66763;47.856;17.462;2024-01-30T13:58:00;12.20;47.80
33943;DHT22;66763;47.856;17.462;2024-01-30T14:00:26;12.20;47.90
33943;DHT22;66763;47.856;17.462;2024-01-30T14:02:52;12.20;47.80
33943;DHT22;66763;47.856;17.462;2024-01-30T14:05:20;12.20;47.90
33943;DHT22;66763;47.856;17.462;2024-01-30T14:07:46;12.20;47.90
33943;DHT22;66763;47.856;17.462;2024-01-30T14:10:12;12.20;47.90
33943;DHT22;66763;47.856;17.462;2024-01-30T14:12:37;12.20;47.90
33943;DHT22;66763;47.856;17.462;2024-01-30T14:15:03;12.10;47.80
33943;DHT22;66763;47.856;17.462;2024-01-30T14:17:28;12.10;47.80
33943;DHT22;66763;47.856;17.462;2024-01-30T14:19:54;12.10;47.80
33943;DHT22;66763;47.856;17.462;2024-01-30T14:22:19;12.10;47.90
33943;DHT22;66763;47.856;17.462;2024-01-30T14:24:44;12.10;47.80
33943;DHT22;66763;47.856;17.462;2024-01-30T14:27:10;12.10;47.90
33943;DHT22;66763;47.856;17.462;2024-01-30T14:29:36;12.10;47.80
33943;DHT22;66763;47.856;17.462;2024-01-30T14:32:01;12.10;47.90
33943;DHT22;66763;47.856;17.462;2024-01-30T14:34:27;12.10;47.90
33943;DHT22;66763;47.856;17.462;2024-01-30T14:36:52;12.10;47.80
33943;DHT22;66763;47.856;17.462;2024-01-30T14:39:18;12.10;47.90
33943;DHT22;66763;47.856;17.462;2024-01-30T14:41:44;12.10;47.90
33943;DHT22;66763;47.856;17.462;2024-01-30T14:44:09;12.10;47.90
33943;DHT22;66763;47.856;17.462;2024-01-30T14:46:35;12.10;47.90
33943;DHT22;66763;47.856;17.462;2024-01-30T14:49:01;12.10;48.00
33943;DHT22;66763;47.856;17.462;2024-01-30T14:51:30;12.10;48.00
33943;DHT22;66763;47.856;17.462;2024-01-30T14:53:56;12.10;48.60
33943;DHT22;66763;47.856;17.462;2024-01-30T14:56:21;12.10;48.00
33943;DHT22;66763;47.856;17.462;2024-01-30T14:58:47;12.10;48.00
33943;DHT22;66763;47.856;17.462;2024-01-30T15:01:13;12.00;48.00
33943;DHT22;66763;47.856;17.462;2024-01-30T15:03:39;12.00;48.00
33943;DHT22;66763;47.856;17.462;2024-01-30T15:06:05;12.00;48.00